Time;durP1;ratioP1;P1;durP2;ratioP2;P2;SDS_P1;SDS_P2;PMS_P1;PMS_P2;Temp;Humidity;BMP_temperature;BMP_pressure;BME280_temperature;BME280_humidity;BME280_pressure;Samples;Min_cycle;Max_cycle;Signal;HPM_P1;HPM_P2
2022/08/27 00:00:45;;;;;;;;;;;;;;;22.62;73.04;100921.63;4984113;28;20407;-52
2022/08/27 00:03:11;;;;;;;;;;;;;;;22.58;73.12;100921.13;4991943;28;20229;-55
2022/08/27 00:05:37;;;;;;;;;;;;;;;22.60;73.03;100924.47;4985099;28;19921;-52
2022/08/27 00:08:03;;;;;;;;;;;;;;;22.58;73.21;100921.13;4991339;28;20361;-52
2022/08/27 00:10:28;;;;;;;;;;;;;;;22.56;73.00;100920.44;4994191;28;19957;-52
2022/08/27 00:12:57;;;;;;;;;;;;;;;22.52;73.28;100922.63;4995757;28;19976;-53
2022/08/27 00:15:23;;;;;;;;;;;;;;;22.51;73.39;100923.63;4988986;28;19932;-54
2022/08/27 00:17:48;;;;;;;;;;;;;;;22.52;73.31;100927.97;4982445;28;19921;-52
2022/08/27 00:20:14;;;;;;;;;;;;;;;22.51;73.62;100923.63;4993452;28;19929;-53
2022/08/27 00:22:40;;;;;;;;;;;;;;;22.56;73.48;100930.34;4991626;28;20020;-51
2022/08/27 00:25:06;;;;;;;;;;;;;;;22.58;73.48;100928.34;4973102;28;19930;-53
2022/08/27 00:27:31;;;;;;;;;;;;;;;22.63;73.45;100934.03;4993717;28;19933;-53
2022/08/27 00:29:56;;;;;;;;;;;;;;;22.66;73.18;100936.41;4993311;28;20574;-52
2022/08/27 00:32:22;;;;;;;;;;;;;;;22.69;73.43;100934.22;5002575;28;20483;-54
2022/08/27 00:34:47;;;;;;;;;;;;;;;22.74;73.12;100939.13;4996377;28;20016;-52
2022/08/27 00:37:12;;;;;;;;;;;;;;;22.76;73.15;100939.78;4989909;28;19926;-52
2022/08/27 00:39:38;;;;;;;;;;;;;;;22.79;73.07;100938.63;4988158;28;20405;-55
2022/08/27 00:42:04;;;;;;;;;;;;;;;22.81;72.93;100932.06;4991981;28;20366;-53
2022/08/27 00:44:30;;;;;;;;;;;;;;;22.84;73.01;100926.38;4994983;28;19940;-52
2022/08/27 00:47:00;;;;;;;;;;;;;;;22.88;72.89;100932.25;4989231;28;19922;-54
2022/08/27 00:49:40;;;;;;;;;;;;;;;22.92;72.77;100932.75;4991469;28;19922;-54
2022/08/27 00:52:09;;;;;;;;;;;;;;;22.94;72.73;100933.44;4991952;28;19929;-53
2022/08/27 00:54:34;;;;;;;;;;;;;;;22.96;72.65;100932.28;4990319;28;20381;-53
2022/08/27 00:57:00;;;;;;;;;;;;;;;22.97;72.58;100925.06;4991819;28;19956;-52
2022/08/27 00:59:28;;;;;;;;;;;;;;;22.98;72.62;100918.69;4995011;28;20330;-53
2022/08/27 01:04:39;;;;;;;;;;;;;;;23.02;72.41;100914.66;4992788;28;20416;-53
2022/08/27 01:07:05;;;;;;;;;;;;;;;22.99;72.35;100917.69;4990029;28;19925;-53
2022/08/27 01:09:31;;;;;;;;;;;;;;;22.92;72.46;100916.66;4971001;28;19925;-54
2022/08/27 01:11:57;;;;;;;;;;;;;;;22.90;72.60;100910.63;4989788;28;20349;-53
2022/08/27 01:14:22;;;;;;;;;;;;;;;22.86;72.51;100911.97;4992064;28;19929;-53
2022/08/27 01:16:53;;;;;;;;;;;;;;;22.79;72.65;100909.94;4989438;28;20378;-54
2022/08/27 01:19:32;;;;;;;;;;;;;;;22.78;72.63;100910.09;4994276;28;20286;-54
2022/08/27 01:22:03;;;;;;;;;;;;;;;22.78;72.71;100910.09;4991056;28;19918;-52
2022/08/27 01:24:37;;;;;;;;;;;;;;;22.76;72.67;100907.59;4988223;28;20401;-55
2022/08/27 01:27:04;;;;;;;;;;;;;;;22.76;72.59;100917.47;4992803;28;19925;-54
2022/08/27 01:29:30;;;;;;;;;;;;;;;22.76;72.69;100917.47;4993704;28;19921;-52
2022/08/27 01:32:05;;;;;;;;;;;;;;;22.76;72.62;100912.13;4989779;28;19933;-54
2022/08/27 01:34:31;;;;;;;;;;;;;;;22.77;72.81;100903.88;4991298;28;19964;-52
2022/08/27 01:36:56;;;;;;;;;;;;;;;22.79;72.47;100901.88;4987678;28;20048;-52
2022/08/27 01:39:22;;;;;;;;;;;;;;;22.77;72.72;100885.13;4989397;28;19930;-52
2022/08/27 01:41:47;;;;;;;;;;;;;;;22.78;72.71;100885.97;4991939;28;20008;-52
2022/08/27 01:44:13;;;;;;;;;;;;;;;22.78;72.52;100889.47;4990576;28;19961;-54
2022/08/27 01:46:38;;;;;;;;;;;;;;;22.79;72.49;100875.06;4999200;28;19960;-55
2022/08/27 01:49:04;;;;;;;;;;;;;;;22.79;72.55;100874.25;4994063;28;19925;-53
2022/08/27 01:51:29;;;;;;;;;;;;;;;22.78;72.42;100877.91;4992742;28;19992;-52
2022/08/27 01:53:54;;;;;;;;;;;;;;;22.76;72.38;100878.09;4995592;28;20305;-53
2022/08/27 01:56:20;;;;;;;;;;;;;;;22.72;72.41;100868.69;4990332;28;20253;-54
2022/08/27 01:58:46;;;;;;;;;;;;;;;22.70;72.65;100865.34;4999556;28;20365;-54
2022/08/27 02:01:13;;;;;;;;;;;;;;;22.68;72.46;100868.19;4990324;28;19929;-55
2022/08/27 02:03:39;;;;;;;;;;;;;;;22.66;72.67;100858.63;4995888;28;20019;-54
2022/08/27 02:06:06;;;;;;;;;;;;;;;22.65;72.62;100868.53;4994794;28;19922;-56
2022/08/27 02:08:31;;;;;;;;;;;;;;;22.65;72.54;100859.63;4995358;28;19925;-53
2022/08/27 02:10:56;;;;;;;;;;;;;;;22.63;72.45;100865.16;4992552;28;19932;-52
2022/08/27 02:13:22;;;;;;;;;;;;;;;22.61;72.76;100863.66;4993658;28;19990;-54
2022/08/27 02:15:47;;;;;;;;;;;;;;;22.60;72.61;100870.03;4992066;28;19929;-54
2022/08/27 02:18:13;;;;;;;;;;;;;;;22.59;72.49;100871.03;4994143;28;19949;-53
2022/08/27 02:20:39;;;;;;;;;;;;;;;22.53;72.67;100873.34;4993807;28;19921;-53
2022/08/27 02:23:05;;;;;;;;;;;;;;;22.51;72.65;100875.34;4991510;28;20353;-54
2022/08/27 02:25:30;;;;;;;;;;;;;;;22.51;73.06;100872.69;4992083;28;19968;-55
2022/08/27 02:27:58;;;;;;;;;;;;;;;22.51;72.83;100875.34;4990456;28;20581;-54
2022/08/27 02:30:24;;;;;;;;;;;;;;;22.55;72.87;100877.72;4995639;28;19972;-54
2022/08/27 02:32:51;;;;;;;;;;;;;;;22.56;72.73;100874.84;4991115;28;19929;-55
2022/08/27 02:35:18;;;;;;;;;;;;;;;22.57;72.67;100881.06;4993264;28;19925;-54
2022/08/27 02:37:44;;;;;;;;;;;;;;;22.56;72.63;100877.53;4996672;28;20432;-56
2022/08/27 02:40:11;;;;;;;;;;;;;;;22.56;72.47;100879.41;4992677;28;20033;-53
2022/08/27 02:42:37;;;;;;;;;;;;;;;22.56;72.67;100868.66;4992023;28;19976;-54
2022/08/27 02:45:03;;;;;;;;;;;;;;;22.55;72.83;100877.72;4994410;28;20012;-52
2022/08/27 02:47:28;;;;;;;;;;;;;;;22.56;72.70;100879.41;4992399;28;20444;-52
2022/08/27 02:49:54;;;;;;;;;;;;;;;22.59;72.79;100874.53;4986815;28;19975;-53
2022/08/27 02:52:19;;;;;;;;;;;;;;;22.61;72.65;100877.06;4996126;28;20005;-54
2022/08/27 02:54:45;;;;;;;;;;;;;;;22.65;72.62;100878.41;4991204;28;19925;-52
2022/08/27 02:57:11;;;;;;;;;;;;;;;22.67;72.33;100876.38;4992962;28;20000;-53
2022/08/27 02:59:36;;;;;;;;;;;;;;;22.68;72.59;100875.38;4993611;28;19980;-53
2022/08/27 03:02:02;;;;;;;;;;;;;;;22.68;72.41;100880.75;4991800;28;19936;-53
2022/08/27 03:04:28;;;;;;;;;;;;;;;22.69;72.34;100874.38;4993512;28;19934;-53
2022/08/27 03:06:54;;;;;;;;;;;;;;;22.69;72.21;100875.22;4992292;28;20084;-54
2022/08/27 03:09:19;;;;;;;;;;;;;;;22.69;72.47;100874.38;4991585;28;20387;-53
2022/08/27 03:11:45;;;;;;;;;;;;;;;22.73;72.18;100881.09;4991758;28;19925;-53
2022/08/27 03:14:11;;;;;;;;;;;;;;;22.73;72.27;100875.75;4994630;28;19921;-53
2022/08/27 03:16:37;;;;;;;;;;;;;;;22.75;72.19;100872.88;4991304;28;19921;-52
2022/08/27 03:19:05;;;;;;;;;;;;;;;22.75;72.26;100870.19;4993244;28;20305;-52
2022/08/27 03:21:30;;;;;;;;;;;;;;;22.75;72.32;100876.41;4988084;28;20016;-53
2022/08/27 03:23:55;;;;;;;;;;;;;;;22.75;72.22;100872.88;4998612;28;20366;-53
2022/08/27 03:26:21;;;;;;;;;;;;;;;22.70;72.12;100865.34;4991398;28;20435;-53
2022/08/27 03:28:46;;;;;;;;;;;;;;;22.68;72.27;100867.34;4993568;28;20025;-52
2022/08/27 03:31:16;;;;;;;;;;;;;;;22.65;72.24;100862.31;4991159;28;20390;-53
2022/08/27 03:33:42;;;;;;;;;;;;;;;22.65;72.26;100865.00;4994477;28;19921;-53
2022/08/27 03:36:08;;;;;;;;;;;;;;;22.68;72.17;100867.34;4993666;28;20891;-54
2022/08/27 03:38:33;;;;;;;;;;;;;;;22.68;72.40;100867.34;4993624;28;20405;-54
2022/08/27 03:40:59;;;;;;;;;;;;;;;22.69;72.33;100869.84;4994227;28;19925;-54
2022/08/27 03:43:25;;;;;;;;;;;;;;;22.73;72.08;100869.53;4992607;28;19932;-52
2022/08/27 03:45:51;;;;;;;;;;;;;;;22.72;72.07;100855.28;4991397;28;19930;-53
2022/08/27 03:48:17;;;;;;;;;;;;;;;22.71;72.29;100871.53;4993306;28;20305;-52
2022/08/27 03:50:45;;;;;;;;;;;;;;;22.72;72.22;100883.94;4974481;28;19924;-53
2022/08/27 03:53:11;;;;;;;;;;;;;;;22.73;72.07;100891.84;4992497;28;19979;-54
2022/08/27 03:55:37;;;;;;;;;;;;;;;22.75;72.16;100892.50;4990668;28;20240;-53
2022/08/27 03:58:02;;;;;;;;;;;;;;;22.76;72.17;100886.16;4991513;28;20389;-52
2022/08/27 04:00:27;;;;;;;;;;;;;;;22.78;72.11;100878.75;4992729;28;19926;-53
2022/08/27 04:02:53;;;;;;;;;;;;;;;22.77;72.15;100871.69;4988947;28;19928;-53
2022/08/27 04:05:19;;;;;;;;;;;;;;;22.76;71.98;100864.69;4991629;28;19936;-52
2022/08/27 04:07:45;;;;;;;;;;;;;;;22.73;71.93;100865.00;4992194;28;19922;-52
2022/08/27 04:10:11;;;;;;;;;;;;;;;22.66;72.07;100854.13;4990808;28;19940;-52
2022/08/27 04:12:36;;;;;;;;;;;;;;;22.61;72.20;100850.25;4991198;28;19925;-53
2022/08/27 04:15:02;;;;;;;;;;;;;;;22.59;72.21;100861.13;4994848;28;19922;-53
2022/08/27 04:17:28;;;;;;;;;;;;;;;22.59;72.39;100862.97;5007982;28;20080;-52
2022/08/27 04:19:53;;;;;;;;;;;;;;;22.60;72.48;100878.06;4984243;28;20647;-52
2022/08/27 04:22:19;;;;;;;;;;;;;;;22.62;72.04;100873.34;4991833;28;20460;-54
2022/08/27 04:24:45;;;;;;;;;;;;;;;22.64;72.20;100874.88;4985827;28;19929;-52
2022/08/27 04:27:13;;;;;;;;;;;;;;;22.66;72.02;100866.66;4986995;28;19925;-52
2022/08/27 04:29:38;;;;;;;;;;;;;;;22.66;72.22;100864.84;4987996;28;19926;-55
2022/08/27 04:32:03;;;;;;;;;;;;;;;22.66;72.08;100872.03;4990209;28;19917;-52
2022/08/27 04:34:29;;;;;;;;;;;;;;;22.65;71.98;100873.03;4989017;28;19941;-53
2022/08/27 04:36:55;;;;;;;;;;;;;;;22.63;72.03;100881.25;4991331;28;19929;-52
2022/08/27 04:39:21;;;;;;;;;;;;;;;22.61;71.96;100874.38;4989578;28;20000;-53
2022/08/27 04:41:48;;;;;;;;;;;;;;;22.57;72.25;100878.41;4992193;28;19922;-53
2022/08/27 04:44:13;;;;;;;;;;;;;;;22.52;72.18;100884.25;4991947;28;19933;-53
2022/08/27 04:46:39;;;;;;;;;;;;;;;22.49;72.37;100882.72;4990680;28;19929;-52
2022/08/27 04:49:06;;;;;;;;;;;;;;;22.51;72.32;100878.03;4991071;28;19921;-52
2022/08/27 04:51:32;;;;;;;;;;;;;;;22.54;72.24;100887.59;4991185;28;20015;-53
2022/08/27 04:53:58;;;;;;;;;;;;;;;22.52;72.33;100887.75;4988607;28;19929;-52
2022/08/27 04:56:24;;;;;;;;;;;;;;;22.47;72.01;100874.00;4994064;28;19964;-54
2022/08/27 04:58:50;;;;;;;;;;;;;;;22.43;72.27;100880.72;4992988;28;19925;-52
2022/08/27 05:01:16;;;;;;;;;;;;;;;22.41;72.51;100877.31;4985856;28;19922;-54
2022/08/27 05:03:42;;;;;;;;;;;;;;;22.42;72.27;100886.22;4988497;28;20625;-54
2022/08/27 05:06:07;;;;;;;;;;;;;;;22.38;72.39;100888.34;4992437;28;20012;-52
2022/08/27 05:08:33;;;;;;;;;;;;;;;22.37;72.48;100900.94;4986937;28;20016;-53
2022/08/27 05:11:00;;;;;;;;;;;;;;;22.41;72.48;100900.59;4988332;28;19932;-53
2022/08/27 05:13:25;;;;;;;;;;;;;;;22.45;72.42;100904.66;4990160;28;19928;-52
2022/08/27 05:15:58;;;;;;;;;;;;;;;22.47;72.40;100910.72;4989783;28;20176;-52
2022/08/27 05:18:24;;;;;;;;;;;;;;;22.50;72.45;100911.22;4993790;28;19926;-53
2022/08/27 05:20:49;;;;;;;;;;;;;;;22.53;72.25;100924.28;4992552;28;20283;-52
2022/08/27 05:23:16;;;;;;;;;;;;;;;22.56;72.28;100924.97;4989544;28;20184;-52
2022/08/27 05:25:44;;;;;;;;;;;;;;;22.58;72.47;100922.97;4988671;28;19937;-53
2022/08/27 05:28:10;;;;;;;;;;;;;;;22.57;72.19;100922.13;4989241;28;19932;-56
2022/08/27 05:30:36;;;;;;;;;;;;;;;22.58;72.34;100915.75;4991434;28;19926;-52
2022/08/27 05:33:02;;;;;;;;;;;;;;;22.57;72.08;100906.03;4987548;28;20017;-53
2022/08/27 05:35:27;;;;;;;;;;;;;;;22.59;72.00;100905.88;4989149;28;19930;-52
2022/08/27 05:37:53;;;;;;;;;;;;;;;22.57;72.04;100902.53;4988960;28;20393;-54
2022/08/27 05:40:19;;;;;;;;;;;;;;;22.54;72.23;100911.72;4972420;28;19926;-54
2022/08/27 05:42:46;;;;;;;;;;;;;;;22.52;72.19;100914.56;4993273;28;19922;-53
2022/08/27 05:45:12;;;;;;;;;;;;;;;22.47;72.33;100914.22;4987640;28;19925;-52
2022/08/27 05:47:37;;;;;;;;;;;;;;;22.45;72.43;100916.25;4992425;28;21195;-52
2022/08/27 05:50:03;;;;;;;;;;;;;;;22.41;72.40;100914.00;4991443;28;19933;-54
2022/08/27 05:52:28;;;;;;;;;;;;;;;22.38;72.55;100907.13;4987956;28;20077;-53
2022/08/27 05:54:53;;;;;;;;;;;;;;;22.39;72.51;100911.50;4993607;28;19945;-54
2022/08/27 05:57:19;;;;;;;;;;;;;;;22.39;72.59;100920.34;4993717;28;19922;-54
2022/08/27 06:02:28;;;;;;;;;;;;;;;22.48;72.60;100915.88;4982499;28;19929;-53
2022/08/27 06:04:54;;;;;;;;;;;;;;;22.49;72.72;100922.94;4988371;28;19980;-53
2022/08/27 06:07:19;;;;;;;;;;;;;;;22.55;72.57;100925.97;4988287;28;19933;-53
2022/08/27 06:09:44;;;;;;;;;;;;;;;22.57;72.49;100935.53;4975930;28;19926;-52
2022/08/27 06:12:10;;;;;;;;;;;;;;;22.62;72.38;100943.06;4979217;28;19926;-53
2022/08/27 06:14:36;;;;;;;;;;;;;;;22.65;72.47;100943.63;4994656;28;19948;-53
2022/08/27 06:17:02;;;;;;;;;;;;;;;22.68;72.47;100939.75;4988193;28;20377;-53
2022/08/27 06:19:27;;;;;;;;;;;;;;;22.70;72.28;100945.81;4991552;28;20036;-54
2022/08/27 06:21:53;;;;;;;;;;;;;;;22.74;72.38;100949.84;4995131;28;19918;-53
2022/08/27 06:24:18;;;;;;;;;;;;;;;22.77;72.49;100941.44;4995267;28;19925;-53
2022/08/27 06:26:44;;;;;;;;;;;;;;;22.78;72.31;100931.56;4989006;28;19961;-54
2022/08/27 06:29:10;;;;;;;;;;;;;;;22.78;72.37;100945.81;4996171;28;19944;-53
2022/08/27 06:31:36;;;;;;;;;;;;;;;22.80;72.40;100951.03;5000357;28;19929;-56
2022/08/27 06:34:03;;;;;;;;;;;;;;;22.80;72.35;100954.53;4989097;28;19932;-51
2022/08/27 06:36:28;;;;;;;;;;;;;;;22.81;72.38;100958.91;4985878;28;19932;-53
2022/08/27 06:38:55;;;;;;;;;;;;;;;22.82;72.38;100960.56;4996408;28;19921;-52
2022/08/27 06:41:21;;;;;;;;;;;;;;;22.85;72.52;100948.66;4996276;28;19926;-53
2022/08/27 06:43:47;;;;;;;;;;;;;;;22.88;72.38;100952.88;4995896;28;19940;-52
2022/08/27 06:46:14;;;;;;;;;;;;;;;22.89;72.34;100954.56;4995618;28;19925;-55
2022/08/27 06:49:00;;;;;;;;;;;;;;;22.91;72.47;100955.25;4996799;28;20006;-55
2022/08/27 06:51:30;;;;;;;;;;;;;;;22.92;72.27;100954.22;5004647;28;20405;-53
2022/08/27 06:54:00;;;;;;;;;;;;;;;22.93;72.29;100956.75;5002907;28;19985;-53
2022/08/27 06:56:27;;;;;;;;;;;;;;;22.95;72.33;100953.88;4989235;28;19918;-53
2022/08/27 06:58:56;;;;;;;;;;;;;;;22.91;72.16;100952.56;4997132;28;19956;-52
2022/08/27 07:01:24;;;;;;;;;;;;;;;22.85;72.24;100946.00;4995908;28;20770;-54
2022/08/27 07:03:50;;;;;;;;;;;;;;;22.78;72.58;100943.13;4996548;28;19922;-53
2022/08/27 07:06:15;;;;;;;;;;;;;;;22.74;72.66;100947.16;4996912;28;19918;-54
2022/08/27 07:08:45;;;;;;;;;;;;;;;22.72;72.78;100935.75;4997316;28;19929;-53
2022/08/27 07:11:11;;;;;;;;;;;;;;;22.74;72.89;100928.38;5001983;28;20040;-52
2022/08/27 07:13:40;;;;;;;;;;;;;;;22.75;72.83;100931.91;4984324;28;19925;-54
2022/08/27 07:16:07;;;;;;;;;;;;;;;22.76;72.95;100939.78;4998786;28;19918;-54
2022/08/27 07:18:42;;;;;;;;;;;;;;;22.75;72.83;100942.63;4987055;28;19975;-54
2022/08/27 07:21:08;;;;;;;;;;;;;;;22.76;72.93;100942.47;5001994;28;19945;-54
2022/08/27 07:23:34;;;;;;;;;;;;;;;22.79;73.10;100942.13;5001616;28;19925;-54
2022/08/27 07:26:00;;;;;;;;;;;;;;;22.82;72.79;100949.84;4998518;28;19925;-54
2022/08/27 07:28:26;;;;;;;;;;;;;;;22.81;72.85;100947.34;5000378;28;19924;-54
2022/08/27 07:30:51;;;;;;;;;;;;;;;22.80;72.91;100957.22;4997419;28;19974;-54
2022/08/27 07:33:16;;;;;;;;;;;;;;;22.81;73.09;100947.34;5001138;28;19924;-55
2022/08/27 07:35:43;;;;;;;;;;;;;;;22.83;73.05;100953.38;4998331;28;20437;-54
2022/08/27 07:38:09;;;;;;;;;;;;;;;22.87;73.16;100956.56;4998935;28;20012;-54
2022/08/27 07:40:35;;;;;;;;;;;;;;;22.90;73.10;100961.63;4998337;28;20590;-52
2022/08/27 07:45:45;;;;;;;;;;;;;;;22.98;73.29;100945.50;4992341;28;20401;-54
2022/08/27 07:48:11;;;;;;;;;;;;;;;23.01;73.19;100950.56;4997121;28;19921;-54
2022/08/27 07:50:36;;;;;;;;;;;;;;;23.03;73.09;100945.88;4999867;28;19924;-53
2022/08/27 07:53:01;;;;;;;;;;;;;;;23.04;73.20;100941.31;5000346;28;19929;-55
2022/08/27 07:55:27;;;;;;;;;;;;;;;23.06;73.24;100944.69;4999509;28;20314;-54
2022/08/27 07:57:53;;;;;;;;;;;;;;;23.06;73.07;100948.22;4997867;28;19926;-52
2022/08/27 08:00:20;;;;;;;;;;;;;;;23.06;73.00;100945.53;4999483;28;19928;-53
2022/08/27 08:02:46;;;;;;;;;;;;;;;23.07;73.08;100951.75;5001074;28;20051;-53
2022/08/27 08:05:12;;;;;;;;;;;;;;;23.07;73.16;100952.56;4996920;28;19933;-54
2022/08/27 08:07:38;;;;;;;;;;;;;;;23.10;73.01;100954.91;4998603;28;19930;-53
2022/08/27 08:10:05;;;;;;;;;;;;;;;23.10;72.85;100949.56;4999084;28;19929;-55
2022/08/27 08:12:30;;;;;;;;;;;;;;;23.10;72.86;100946.03;4995925;28;22238;-52
2022/08/27 08:14:56;;;;;;;;;;;;;;;23.10;73.03;100951.41;4996153;28;19926;-53
2022/08/27 08:17:23;;;;;;;;;;;;;;;23.09;73.04;100953.25;4996349;28;20456;-54
2022/08/27 08:19:49;;;;;;;;;;;;;;;23.09;72.92;100952.41;4994167;28;19921;-53
2022/08/27 08:22:14;;;;;;;;;;;;;;;23.06;72.93;100950.91;4989647;28;19925;-53
2022/08/27 08:24:39;;;;;;;;;;;;;;;23.05;73.08;100953.75;4995056;28;20587;-53
2022/08/27 08:27:05;;;;;;;;;;;;;;;23.02;73.06;100944.19;5007136;28;19944;-51
2022/08/27 08:29:30;;;;;;;;;;;;;;;23.01;73.28;100947.88;4979990;28;19929;-53
2022/08/27 08:31:55;;;;;;;;;;;;;;;23.02;73.11;100941.50;4979701;28;19925;-52
2022/08/27 08:34:21;;;;;;;;;;;;;;;23.01;73.16;100929.09;4992168;28;19945;-52
2022/08/27 08:36:47;;;;;;;;;;;;;;;22.99;73.33;100929.25;4994882;28;19921;-53
2022/08/27 08:39:12;;;;;;;;;;;;;;;22.96;73.39;100942.16;4992508;28;20040;-55
2022/08/27 08:41:48;;;;;;;;;;;;;;;22.92;73.47;100924.69;4994143;28;20024;-53
2022/08/27 08:44:19;;;;;;;;;;;;;;;22.89;73.67;100919.69;4996045;28;19925;-52
2022/08/27 08:46:48;;;;;;;;;;;;;;;22.90;73.59;100924.88;4996341;28;19917;-54
2022/08/27 08:49:24;;;;;;;;;;;;;;;22.92;73.68;100922.03;4989759;28;20589;-52
2022/08/27 08:51:52;;;;;;;;;;;;;;;22.94;73.83;100926.25;4991137;28;19929;-53
2022/08/27 08:54:19;;;;;;;;;;;;;;;22.96;73.88;100926.91;4996223;28;20285;-52
2022/08/27 08:56:53;;;;;;;;;;;;;;;23.01;73.85;100930.91;4993070;28;20077;-53
2022/08/27 08:59:26;;;;;;;;;;;;;;;23.02;73.93;100943.34;4993315;28;20379;-52
2022/08/27 09:01:52;;;;;;;;;;;;;;;23.05;73.96;100954.59;4992965;28;19917;-52
2022/08/27 09:04:17;;;;;;;;;;;;;;;23.10;74.11;100948.72;4993778;28;20501;-55
2022/08/27 09:06:42;;;;;;;;;;;;;;;23.16;73.94;100955.28;4991692;28;19929;-52
2022/08/27 09:09:34;;;;;;;;;;;;;;;23.20;73.87;100948.56;4992030;28;20274;-53
2022/08/27 09:12:14;;;;;;;;;;;;;;;23.22;73.58;100949.25;4993393;28;19944;-53
2022/08/27 09:14:59;;;;;;;;;;;;;;;23.21;73.64;100952.97;4993963;28;19917;-52
2022/08/27 09:17:25;;;;;;;;;;;;;;;23.19;73.71;100949.56;4991665;28;19967;-54
2022/08/27 09:19:50;;;;;;;;;;;;;;;23.18;73.46;100942.53;4976352;28;20016;-52
2022/08/27 09:22:20;;;;;;;;;;;;;;;23.18;73.90;100943.34;4988513;28;19959;-54
2022/08/27 09:24:46;;;;;;;;;;;;;;;23.21;73.75;100947.59;4992865;28;19983;-53
2022/08/27 09:27:15;;;;;;;;;;;;;;;23.24;73.76;100939.19;4993352;28;20394;-52
2022/08/27 09:29:54;;;;;;;;;;;;;;;23.28;73.54;100932.47;4992459;28;19933;-52
2022/08/27 09:32:24;;;;;;;;;;;;;;;23.26;73.58;100938.03;4976607;28;20078;-52
2022/08/27 09:34:50;;;;;;;;;;;;;;;23.28;73.67;100953.97;4991330;28;19926;-52
2022/08/27 09:37:19;;;;;;;;;;;;;;;23.31;73.67;100945.59;4996286;28;19918;-54
2022/08/27 09:39:55;;;;;;;;;;;;;;;23.37;73.56;100950.25;4998068;28;19922;-54
2022/08/27 09:42:33;;;;;;;;;;;;;;;23.43;73.60;100956.81;4989800;28;19961;-53
2022/08/27 09:44:58;;;;;;;;;;;;;;;23.48;73.17;100950.94;4990491;28;19972;-53
2022/08/27 09:47:24;;;;;;;;;;;;;;;23.53;73.31;100967.38;4993442;28;20350;-52
2022/08/27 09:50:00;;;;;;;;;;;;;;;23.58;73.20;100963.19;4998595;28;19926;-53
2022/08/27 09:52:50;;;;;;;;;;;;;;;23.65;73.32;100963.34;4995664;28;19917;-53
2022/08/27 09:55:29;;;;;;;;;;;;;;;23.74;73.21;100956.13;4991053;28;19922;-53
2022/08/27 09:57:54;;;;;;;;;;;;;;;23.81;72.99;100958.97;4994351;28;19924;-54
2022/08/27 10:00:27;;;;;;;;;;;;;;;23.87;72.77;100960.97;4991967;28;19922;-56
2022/08/27 10:02:53;;;;;;;;;;;;;;;23.93;72.73;100965.66;4989926;28;19918;-52
2022/08/27 10:05:27;;;;;;;;;;;;;;;23.98;72.83;100971.38;4993909;28;19921;-54
2022/08/27 10:07:57;;;;;;;;;;;;;;;24.01;72.66;100972.91;4997049;28;19922;-54
2022/08/27 10:10:25;;;;;;;;;;;;;;;24.04;72.56;100977.94;4999313;28;19918;-53
2022/08/27 10:13:00;;;;;;;;;;;;;;;24.05;72.41;100985.81;4994229;28;19922;-53
2022/08/27 10:15:33;;;;;;;;;;;;;;;24.08;72.44;100981.09;4991651;28;19929;-54
2022/08/27 10:18:01;;;;;;;;;;;;;;;24.11;72.38;100981.59;4999757;28;19922;-54
2022/08/27 10:20:27;;;;;;;;;;;;;;;24.12;72.55;100985.13;4997034;28;19953;-55
2022/08/27 10:23:18;;;;;;;;;;;;;;;24.15;72.50;100979.41;5003152;28;19967;-54
2022/08/27 10:26:06;;;;;;;;;;;;;;;24.16;72.31;100981.94;4999905;28;19925;-53
2022/08/27 10:28:35;;;;;;;;;;;;;;;24.17;72.20;100980.06;5000254;28;19922;-52
2022/08/27 10:31:22;;;;;;;;;;;;;;;24.14;72.15;100977.72;5001552;28;19921;-55
2022/08/27 10:34:06;;;;;;;;;;;;;;;24.11;71.98;100980.78;4998298;28;19921;-53
2022/08/27 10:36:50;;;;;;;;;;;;;;;24.08;72.12;100981.94;5002189;28;20389;-54
2022/08/27 10:39:34;;;;;;;;;;;;;;;24.10;72.05;100979.91;5001772;28;19921;-53
2022/08/27 10:42:12;;;;;;;;;;;;;;;24.16;71.95;100984.63;5002201;28;19917;-53
2022/08/27 10:44:37;;;;;;;;;;;;;;;24.21;71.80;100984.09;5000407;28;20153;-54
2022/08/27 10:47:14;;;;;;;;;;;;;;;24.25;71.69;100987.25;4999583;28;20360;-52
2022/08/27 10:49:45;;;;;;;;;;;;;;;24.27;71.19;100988.78;5002006;28;19925;-54
2022/08/27 10:52:26;;;;;;;;;;;;;;;24.34;71.12;100991.63;5003459;28;19961;-55
2022/08/27 10:54:59;;;;;;;;;;;;;;;24.40;70.93;100990.09;4999209;28;19922;-55
2022/08/27 10:57:36;;;;;;;;;;;;;;;24.47;70.73;100982.97;5000405;28;19927;-53
2022/08/27 11:00:09;;;;;;;;;;;;;;;24.56;70.43;100987.31;5000556;28;19956;-55
2022/08/27 11:02:47;;;;;;;;;;;;;;;24.62;70.33;100996.53;4999238;28;19924;-54
2022/08/27 11:05:32;;;;;;;;;;;;;;;24.69;69.85;100989.44;4998495;28;20405;-55
2022/08/27 11:08:02;;;;;;;;;;;;;;;24.72;69.64;100993.69;4988691;28;20028;-53
2022/08/27 11:10:37;;;;;;;;;;;;;;;24.71;69.65;100990.13;4998173;28;19976;-53
2022/08/27 11:13:07;;;;;;;;;;;;;;;24.74;69.33;100989.78;4996056;28;19925;-56
2022/08/27 11:15:35;;;;;;;;;;;;;;;24.76;69.28;100986.91;4995047;28;19929;-53
2022/08/27 11:18:00;;;;;;;;;;;;;;;24.79;69.27;100989.25;4993525;28;19960;-54
2022/08/27 11:20:52;;;;;;;;;;;;;;;24.84;69.32;100986.03;4995933;28;19925;-53
2022/08/27 11:23:24;;;;;;;;;;;;;;;24.89;68.89;100992.53;4981754;28;19921;-53
2022/08/27 11:25:52;;;;;;;;;;;;;;;24.93;68.76;100991.19;4991988;28;19929;-53
2022/08/27 11:28:19;;;;;;;;;;;;;;;24.96;68.98;100992.66;4995164;28;19926;-55
2022/08/27 11:30:51;;;;;;;;;;;;;;;25.03;68.90;100987.44;4991412;28;20411;-53
2022/08/27 11:33:36;;;;;;;;;;;;;;;25.10;68.50;100985.69;4995289;28;19929;-53
2022/08/27 11:36:18;;;;;;;;;;;;;;;25.18;68.32;100982.97;4992843;28;20373;-53
2022/08/27 11:38:51;;;;;;;;;;;;;;;25.29;68.20;100994.31;4996282;28;19924;-54
2022/08/27 11:41:32;;;;;;;;;;;;;;;25.35;67.84;100982.81;4993586;28;19976;-53
2022/08/27 11:43:58;;;;;;;;;;;;;;;25.40;68.01;100991.19;4996555;28;19917;-53
2022/08/27 11:46:25;;;;;;;;;;;;;;;25.42;67.50;100983.81;4993741;28;19921;-53
2022/08/27 11:49:00;;;;;;;;;;;;;;;25.44;67.85;100991.69;4995528;28;19928;-52
2022/08/27 11:51:32;;;;;;;;;;;;;;;25.45;67.47;100991.53;4992383;28;20011;-52
2022/08/27 11:54:02;;;;;;;;;;;;;;;25.47;67.61;100994.88;4996109;28;19964;-53
2022/08/27 11:56:40;;;;;;;;;;;;;;;25.50;67.51;100986.41;4994010;28;19964;-53
2022/08/27 11:59:08;;;;;;;;;;;;;;;25.54;67.57;100990.44;4996146;28;19917;-53
2022/08/27 12:01:33;;;;;;;;;;;;;;;25.56;67.59;100991.09;4994435;28;19949;-53
2022/08/27 12:04:05;;;;;;;;;;;;;;;25.60;67.25;100996.13;4995248;28;20410;-53
2022/08/27 12:06:39;;;;;;;;;;;;;;;25.61;67.41;100995.09;4995264;28;19926;-53
2022/08/27 12:09:12;;;;;;;;;;;;;;;25.62;67.08;100989.53;4993207;28;19955;-54
2022/08/27 12:11:44;;;;;;;;;;;;;;;25.61;67.14;100995.94;4997235;28;19953;-54
2022/08/27 12:14:32;;;;;;;;;;;;;;;25.60;67.14;100990.75;5000362;28;19914;-53
2022/08/27 12:17:10;;;;;;;;;;;;;;;25.60;66.86;100980.78;4987617;28;19976;-56
2022/08/27 12:19:55;;;;;;;;;;;;;;;25.63;66.79;100985.00;4994376;28;19939;-54
2022/08/27 12:22:20;;;;;;;;;;;;;;;25.66;66.97;100987.28;5000130;28;19972;-52
2022/08/27 12:25:06;;;;;;;;;;;;;;;25.68;66.64;100987.94;4998728;28;20386;-55
2022/08/27 12:27:34;;;;;;;;;;;;;;;25.69;66.70;100978.84;4996537;28;20432;-52
2022/08/27 12:30:03;;;;;;;;;;;;;;;25.73;66.37;100982.88;4997426;28;19918;-54
2022/08/27 12:32:31;;;;;;;;;;;;;;;25.77;66.56;100976.09;4997954;28;19917;-53
2022/08/27 12:35:06;;;;;;;;;;;;;;;25.83;66.16;100977.22;4996012;28;19922;-53
2022/08/27 12:37:37;;;;;;;;;;;;;;;25.85;66.33;100973.31;4997558;28;20008;-53
2022/08/27 12:40:08;;;;;;;;;;;;;;;25.91;66.17;100981.69;4992400;28;20004;-53
2022/08/27 12:42:34;;;;;;;;;;;;;;;25.93;65.88;100982.34;4991366;28;19921;-53
2022/08/27 12:44:59;;;;;;;;;;;;;;;25.96;65.97;100979.25;4995971;28;19921;-53
2022/08/27 12:47:24;;;;;;;;;;;;;;;26.00;65.49;100975.16;4994393;28;19926;-53
2022/08/27 12:49:52;;;;;;;;;;;;;;;26.02;65.76;100979.34;4993527;28;19932;-53